Molt, MT (59057)

4:07 PM MDT on October 25, 2014 (GMT -0600)
Billings Flying Mustangs | Change Station
CLOSE
Current Station
Personal Weather Station
Location: Billings, MT
Elevation: 3504 ft
Nearby Weather Stations

Elev 3504 ft 45.79 °N, 108.73 °W | Updated 28 seconds ago

Clear
Clear
66.3 °F
Feels Like 66.3 °F
N
5.2
Wind Variable Wind from NE
Gusts 6.1 mph

Today
High -- | Low -- °F
--% Chance of Precip.
Yesterday
High -- | Low -- °F
Precip. -- in
7:45 AM 6:12 PM
Waxing Crescent, 4% visible
Pressure 29.79 in
Visibility 10.0 miles
Clouds Few 22000 ft
Dew Point 33 °F
Humidity 29%
Rainfall 0.00 in
Snow Depth Not available.
UV 1 out of 12
Pollen 2.00 out of 12
Air Quality Not available.
Flu Activity No Activity
METAR KBIL 252153Z 04007KT 10SM FEW220 18/03 A2981 RMK AO2 SLP088 T01780028

More Conditions Fewer Conditions

Pressure 29.79 in
Visibility 10.0 miles
Clouds Few 22000 ft
Dew Point 33 °F
Humidity 29%
Rainfall 0.00 in
Snow Depth Not available.
UV 1 out of 12
Pollen 2.00 out of 12
Air Quality Not available.
Flu Activity No Activity
METAR KBIL 252153Z 04007KT 10SM FEW220 18/03 A2981 RMK AO2 SLP088 T01780028

More Conditions Fewer Conditions

10-Day Weather Forecast

Almanac

Astronomy

Oct. 25, 2014 Rise Set
Actual Time 7:45 AM MDT 6:12 PM MDT
Civil Twilight 7:15 AM MDT 6:42 PM MDT
Nautical Twilight 6:40 AM MDT 7:17 PM MDT
Astronomical Twilight 6:05 AM MDT 7:52 PM MDT
Moon 9:31 AM MDT 7:32 PM MDT
Length of Visible Light 11h 27m
Length of Day
10h 26m
Tomorrow will be 3m 1s shorter.
Waxing Crescent, 4% of the Moon is Illuminated
Today
Waxing Crescent
Oct 30
First Quarter
Nov 6
Full
Nov 14
Last Quarter
Nov 22
New

Today's Extremes

State Highs State Lows

Community

WunderPhotos

Upload Photos

1,765,009 photos uploaded!

Nearby

Snow Depth

Station Depth Elevation
Crystal Lake 0 in 6050 ft
Fisher Creek 0 in 9100 ft
South Fork Shields 0 in 8100 ft
Monument Peak 0 in 8850 ft
Northeast Entrance 0 in 7350 ft

Earthquake Activity

City Distance Mag. Time & Date
No recent earthquake activity has been reported nearby.
Minimum magnitude displayed is 2.5.

Coastal Water Temperatures

Place Temperature
No Stations Reporting

Nearby Weather Stations